»·PEaware :: UAL2436 KSFO-KSAN

UAL2436 :: KSFO-KSAN

FLIGHT INFORMATION

Flight Status: Arrived
Operator:
United Airlines
More flights by this operator :: More flights under this callsign
Pilot: Thomas Z. (24453)
Aircraft: Boeing 787-10 Dreamliner
(B78X)
More flights by this aircraft type
Origin: KSFO San Francisco Intl
United States
Destination: KSAN San Diego Intl-Lindbergh
United States
More flights between these airports :: More routes between these airports
Route: +SSTIK4 YYUNG LAX COMIX2
File this flight plan on PilotEdge
Remarks: RMK / SIMBRIEF
Altitude:
(Current/Filed)
35,000ft
Speed:
(Current/Filed)
493kts
Departed: 20-Apr-20 11:42 AM
Arrived: 20-Apr-20 12:54 PM
Distance/Time
Traveled:
388nm/1:12
Distance/Time
To Go:
Arrived

Flight Plot

Page will automatically refresh every two minutes.

Flight plan parsing failed; only flown route is shown


Map Options




Map Legend


Flown Route
Filed Route
Departure Airport
Arrival Airport
Navaid (VOR, NDB)
Fix

Horizontal Profiles

Position Reports

Time Latitude Longitude Heading Altitude Ground
Speed
20-Apr-20 11:09 37.616731 -122.382266 24 26ft 0kts
20-Apr-20 11:10 37.616731 -122.382266 24 26ft 0kts
20-Apr-20 11:11 37.616731 -122.382266 24 26ft 0kts
20-Apr-20 11:12 37.616731 -122.382266 24 26ft 0kts
20-Apr-20 11:13 37.616731 -122.382266 24 26ft 0kts
20-Apr-20 11:14 37.616731 -122.382266 24 26ft 0kts
20-Apr-20 11:15 37.616731 -122.382266 24 26ft 0kts
20-Apr-20 11:16 37.616731 -122.382266 24 26ft 0kts
20-Apr-20 11:17 37.616731 -122.382266 24 26ft 0kts
20-Apr-20 11:18 37.616731 -122.382266 24 26ft 0kts
20-Apr-20 11:19 37.616731 -122.382266 24 26ft 0kts
20-Apr-20 11:20 37.616731 -122.382266 24 26ft 0kts
20-Apr-20 11:21 37.616731 -122.382266 24 26ft 0kts
20-Apr-20 11:22 37.616731 -122.382266 24 26ft 0kts
20-Apr-20 11:23 37.616731 -122.382266 24 26ft 0kts
20-Apr-20 11:24 37.616731 -122.382266 24 26ft 0kts
20-Apr-20 11:25 37.616731 -122.382266 24 26ft 0kts
20-Apr-20 11:26 37.616731 -122.382266 24 26ft 0kts
20-Apr-20 11:27 37.616731 -122.382266 24 26ft 0kts
20-Apr-20 11:28 37.616731 -122.382266 24 26ft 0kts
20-Apr-20 11:29 37.616731 -122.382266 24 26ft 0kts
20-Apr-20 11:30 37.616731 -122.382266 24 26ft 0kts
20-Apr-20 11:31 37.616617 -122.382316 356 26ft 2kts
20-Apr-20 11:32 37.616277 -122.382630 103 26ft 2kts
20-Apr-20 11:33 37.616341 -122.382879 113 26ft 0kts
20-Apr-20 11:34 37.616339 -122.382874 113 26ft 0kts
20-Apr-20 11:35 37.616104 -122.382160 112 26ft 0kts
20-Apr-20 11:36 37.616101 -122.382152 112 26ft 0kts
20-Apr-20 11:37 37.615255 -122.380728 172 26ft 10kts
20-Apr-20 11:38 37.610787 -122.383516 208 26ft 17kts
20-Apr-20 11:39 37.609464 -122.383528 121 26ft 0kts
20-Apr-20 11:40 37.609419 -122.381933 27 26ft 0kts
20-Apr-20 11:41 37.646787 -122.358125 11 2474ft 208kts
20-Apr-20 11:42 37.703351 -122.389799 294 5079ft 261kts
20-Apr-20 11:43 37.667694 -122.456151 188 8440ft 277kts
20-Apr-20 11:44 37.589165 -122.450766 182 9982ft 285kts
20-Apr-20 11:45 37.504820 -122.470190 195 10036ft 337kts
20-Apr-20 11:46 37.407959 -122.489751 189 12720ft 360kts
20-Apr-20 11:47 37.306337 -122.508317 190 15594ft 377kts
20-Apr-20 11:48 37.200337 -122.528098 190 18194ft 393kts
20-Apr-20 11:49 37.090037 -122.548642 190 20546ft 407kts
20-Apr-20 11:50 36.976090 -122.543073 159 22588ft 430kts
20-Apr-20 11:51 36.881255 -122.447167 140 24524ft 448kts
20-Apr-20 11:52 36.782316 -122.349458 144 26369ft 460kts
20-Apr-20 11:53 36.678508 -122.252204 145 28057ft 473kts
20-Apr-20 11:54 36.572043 -122.152750 145 29597ft 485kts
20-Apr-20 11:55 36.465419 -122.046605 142 30950ft 499kts
20-Apr-20 11:57 36.358047 -121.934439 142 32365ft 509kts
20-Apr-20 11:58 36.249959 -121.821833 143 34234ft 506kts
20-Apr-20 11:59 36.141287 -121.709179 143 35221ft 509kts
20-Apr-20 12:00 36.032773 -121.597046 143 35235ft 509kts
20-Apr-20 12:01 35.923944 -121.484974 143 35227ft 511kts
20-Apr-20 12:02 35.814564 -121.372819 144 35202ft 512kts
20-Apr-20 12:03 35.704773 -121.260620 144 35206ft 512kts
20-Apr-20 12:04 35.595070 -121.148927 144 35212ft 512kts
20-Apr-20 12:05 35.490789 -121.030554 131 35205ft 513kts
20-Apr-20 12:06 35.409317 -120.885480 128 35198ft 520kts
20-Apr-20 12:07 35.325280 -120.740253 129 35203ft 522kts
20-Apr-20 12:08 35.240727 -120.595785 129 35216ft 523kts
20-Apr-20 12:09 35.155786 -120.451153 130 35213ft 523kts
20-Apr-20 12:10 35.070829 -120.307086 130 35202ft 523kts
20-Apr-20 12:11 34.985173 -120.162428 130 35202ft 524kts
20-Apr-20 12:12 34.899644 -120.018576 131 35201ft 525kts
20-Apr-20 12:13 34.813677 -119.874517 132 35194ft 524kts
20-Apr-20 12:14 34.727798 -119.731306 132 35183ft 525kts
20-Apr-20 12:15 34.641498 -119.587912 132 35178ft 525kts
20-Apr-20 12:16 34.555033 -119.444805 132 35169ft 526kts
20-Apr-20 12:17 34.468496 -119.302167 133 35172ft 525kts
20-Apr-20 12:18 34.381801 -119.159820 133 35176ft 525kts
20-Apr-20 12:18 34.309622 -119.041739 133 35158ft 524kts
20-Apr-20 12:20 34.208409 -118.876820 134 35155ft 523kts
20-Apr-20 12:21 34.121640 -118.735980 134 34051ft 519kts
20-Apr-20 12:21 34.049933 -118.620074 135 33228ft 516kts
20-Apr-20 12:22 33.964114 -118.482149 136 32402ft 511kts
20-Apr-20 12:23 33.872075 -118.353352 141 31348ft 499kts
20-Apr-20 12:25 33.764836 -118.213654 141 29212ft 475kts
20-Apr-20 12:25 33.691490 -118.117601 140 27689ft 462kts
20-Apr-20 12:26 33.605630 -118.005204 139 25918ft 453kts
20-Apr-20 12:27 33.519368 -117.897747 141 24215ft 442kts
20-Apr-20 12:28 33.432604 -117.795391 141 22562ft 432kts
20-Apr-20 12:29 33.349063 -117.694117 140 20894ft 423kts
20-Apr-20 12:30 33.265508 -117.598384 146 19513ft 411kts
20-Apr-20 12:31 33.175471 -117.516224 149 16842ft 403kts
20-Apr-20 12:32 33.085229 -117.440374 149 13856ft 381kts
20-Apr-20 12:33 33.002770 -117.371305 148 11203ft 343kts
20-Apr-20 12:34 32.930064 -117.310377 147 9839ft 296kts
20-Apr-20 12:35 32.864332 -117.255720 146 8641ft 289kts
20-Apr-20 12:36 32.806785 -117.192254 110 7490ft 285kts
20-Apr-20 12:37 32.795754 -117.100876 96 6450ft 280kts
20-Apr-20 12:38 32.779479 -117.011275 101 5478ft 276kts
20-Apr-20 12:39 32.764408 -116.926115 101 5007ft 245kts
20-Apr-20 12:40 32.750921 -116.849379 101 4997ft 233kts
20-Apr-20 12:41 32.737798 -116.773981 101 4982ft 232kts
20-Apr-20 12:42 32.701926 -116.718934 171 4986ft 232kts
20-Apr-20 12:43 32.659897 -116.765725 253 4997ft 216kts
20-Apr-20 12:44 32.657348 -116.826440 283 4599ft 167kts
20-Apr-20 12:45 32.666051 -116.875158 281 4296ft 141kts
20-Apr-20 12:46 32.675058 -116.920564 286 3997ft 141kts
20-Apr-20 12:47 32.685202 -116.965521 282 3702ft 141kts
20-Apr-20 12:48 32.694599 -117.010593 286 2948ft 140kts
20-Apr-20 12:49 32.702353 -117.055459 282 2209ft 138kts
20-Apr-20 12:50 32.711752 -117.098931 285 1498ft 134kts
20-Apr-20 12:51 32.721816 -117.140919 286 763ft 130kts
20-Apr-20 12:52 32.731726 -117.182063 286 43ft 125kts
20-Apr-20 12:53 32.733187 -117.192202 276 28ft 0kts
20-Apr-20 12:54 32.733245 -117.192588 281 28ft 10kts

Navigation Log

Ident Type
Flight plan parsing failed, navigation log unavailable